Time;durP1;ratioP1;P1;durP2;ratioP2;P2;SDS_P1;SDS_P2;PMS_P1;PMS_P2;Temp;Humidity;BMP_temperature;BMP_pressure;BME280_temperature;BME280_humidity;BME280_pressure;Samples;Min_cycle;Max_cycle;Signal;HPM_P1;HPM_P2
2022/01/22 00:01:43;;;;;;;37.75;27.85;;;4.50;79.50;;;;;;10903535;32;20387;-73
2022/01/22 00:07:45;;;;;;;33.95;26.98;;;4.50;79.30;;;;;;10904508;32;20073;-72
2022/01/22 00:20:10;;;;;;;33.95;25.80;;;4.40;79.30;;;;;;10910053;32;20054;-72
2022/01/22 00:26:12;;;;;;;38.33;28.17;;;4.40;79.20;;;;;;10909904;32;20023;-72
2022/01/22 00:32:15;;;;;;;39.78;30.60;;;4.40;79.20;;;;;;10909536;32;20055;-72
2022/01/22 00:38:17;;;;;;;39.05;29.12;;;4.30;79.10;;;;;;10895648;32;20058;-71
2022/01/22 00:44:19;;;;;;;32.65;26.70;;;4.30;79.00;;;;;;10909179;32;20027;-72
2022/01/22 00:50:24;;;;;;;37.03;26.87;;;4.20;79.10;;;;;;10909100;32;20023;-72
2022/01/22 00:56:27;;;;;;;54.47;38.17;;;4.20;79.10;;;;;;10908903;32;20041;-72
2022/01/22 01:02:29;;;;;;;51.75;39.83;;;4.20;79.10;;;;;;10908617;32;20039;-72
2022/01/22 01:08:33;;;;;;;38.92;30.23;;;4.20;79.20;;;;;;10908345;32;20363;-72
2022/01/22 01:14:43;;;;;;;48.95;33.42;;;4.20;79.10;;;;;;10904039;32;20298;-72
2022/01/22 01:33:47;;;;;;;33.58;25.65;;;3.90;79.00;;;;;;10905833;32;19919;-72
2022/01/22 01:40:08;;;;;;;30.98;24.95;;;3.80;79.00;;;;;;10906522;32;20047;-72
2022/01/22 01:46:10;;;;;;;33.35;25.02;;;3.80;79.10;;;;;;10907654;27;20070;-72
2022/01/22 01:52:19;;;;;;;38.50;24.67;;;3.80;79.10;;;;;;10907035;32;20462;-72
2022/01/22 01:58:28;;;;;;;33.60;24.07;;;3.70;79.10;;;;;;10906690;32;20011;-72
2022/01/22 02:04:31;;;;;;;38.38;29.70;;;3.70;79.10;;;;;;10892938;32;20023;-72
2022/01/22 02:10:58;;;;;;;39.55;29.48;;;3.80;78.90;;;;;;10888664;32;20054;-72
2022/01/22 02:23:43;;;;;;;39.75;29.80;;;3.70;79.10;;;;;;10901506;32;20027;-72
2022/01/22 02:29:46;;;;;;;37.92;27.02;;;3.60;79.30;;;;;;10905465;32;20058;-72
2022/01/22 02:35:58;;;;;;;37.75;26.12;;;3.60;79.10;;;;;;10905245;32;20395;-72
2022/01/22 02:42:00;;;;;;;39.85;26.35;;;3.60;79.00;;;;;;10905076;32;20442;-72
2022/01/22 02:48:03;;;;;;;34.40;25.85;;;3.50;79.00;;;;;;10904890;32;20023;-72
2022/01/22 02:54:05;;;;;;;37.17;28.08;;;3.40;78.90;;;;;;10904730;32;20031;-72
2022/01/22 03:00:12;;;;;;;35.83;26.10;;;3.40;79.10;;;;;;10891487;32;20016;-72
2022/01/22 03:06:14;;;;;;;39.05;27.17;;;3.40;79.10;;;;;;10904632;32;20020;-72
2022/01/22 03:12:44;;;;;;;36.58;25.65;;;3.40;78.90;;;;;;10904607;32;20019;-72
2022/01/22 03:18:59;;;;;;;54.20;37.17;;;3.40;78.90;;;;;;10904268;32;20177;-72
2022/01/22 03:31:27;;;;;;;36.95;26.35;;;3.20;79.10;;;;;;10900665;32;20027;-72
2022/01/22 03:37:59;;;;;;;36.78;27.33;;;2.90;79.50;;;;;;10903957;32;20042;-72
2022/01/22 03:44:05;;;;;;;39.45;24.75;;;2.90;79.90;;;;;;10909783;32;20019;-72
2022/01/22 03:50:14;;;;;;;34.55;25.80;;;2.80;80.20;;;;;;10911891;32;20038;-72
2022/01/22 03:56:16;;;;;;;27.55;20.67;;;2.90;79.90;;;;;;10911011;32;20359;-72
2022/01/22 04:08:24;;;;;;;28.40;22.05;;;2.30;80.20;;;;;;10906459;32;20019;-71
2022/01/22 04:14:33;;;;;;;40.60;27.52;;;2.20;80.70;;;;;;10910210;32;20054;-72
2022/01/22 04:27:00;;;;;;;39.97;26.95;;;2.40;80.90;;;;;;10909855;32;20088;-72
2022/01/22 04:33:05;;;;;;;35.15;26.87;;;2.60;80.40;;;;;;10909655;32;20058;-72
2022/01/22 04:39:09;;;;;;;37.80;26.17;;;2.70;80.20;;;;;;10909450;32;20403;-72
2022/01/22 04:45:29;;;;;;;34.75;26.30;;;2.60;80.10;;;;;;10896117;32;20050;-72
2022/01/22 04:58:25;;;;;;;35.22;25.50;;;2.10;80.40;;;;;;10908875;32;20328;-72
2022/01/22 05:04:28;;;;;;;41.88;30.27;;;2.10;81.00;;;;;;10908476;32;20023;-71
2022/01/22 05:10:31;;;;;;;42.33;30.42;;;2.30;81.00;;;;;;10892071;32;20427;-71
2022/01/22 05:16:37;;;;;;;39.72;28.23;;;2.40;80.60;;;;;;10904478;32;20023;-72
2022/01/22 05:29:14;;;;;;;41.30;31.80;;;2.70;80.30;;;;;;10907556;32;20027;-72
2022/01/22 05:41:39;;;;;;;43.28;30.58;;;2.90;80.50;;;;;;10908239;32;20375;-72
2022/01/22 05:47:46;;;;;;;34.28;29.10;;;2.60;80.40;;;;;;10894060;32;20433;-72
2022/01/22 06:00:11;;;;;;;49.47;38.00;;;2.50;80.30;;;;;;10907168;32;20367;-72
2022/01/22 06:06:21;;;;;;;54.92;42.47;;;2.50;80.30;;;;;;10902382;32;20368;-72
2022/01/22 06:18:35;;;;;;;42.08;30.85;;;2.50;80.10;;;;;;10904532;32;20054;-72
2022/01/22 06:24:37;;;;;;;40.10;27.60;;;2.60;79.80;;;;;;10901392;32;20328;-72
2022/01/22 06:31:09;;;;;;;41.33;27.75;;;2.50;79.70;;;;;;10905630;32;20015;-72
2022/01/22 06:37:11;;;;;;;41.33;30.08;;;2.40;79.50;;;;;;10905366;32;20011;-72
2022/01/22 06:43:15;;;;;;;43.60;30.17;;;2.20;79.50;;;;;;10903212;32;20027;-72
2022/01/22 06:49:53;;;;;;;50.63;37.67;;;2.30;80.10;;;;;;10904881;32;20019;-72
2022/01/22 06:56:00;;;;;;;42.15;30.15;;;2.30;80.20;;;;;;10901003;32;20073;-73
2022/01/22 07:02:04;;;;;;;53.25;34.45;;;2.50;80.50;;;;;;10900437;32;20027;-74
2022/01/22 07:08:06;;;;;;;52.38;38.08;;;2.50;80.30;;;;;;10900282;32;20086;-74
2022/01/22 07:14:11;;;;;;;51.63;36.30;;;2.60;80.50;;;;;;10903898;32;20015;-74
2022/01/22 07:20:17;;;;;;;44.72;31.52;;;2.60;80.90;;;;;;10904228;32;20023;-74
2022/01/22 07:26:20;;;;;;;45.15;30.77;;;2.50;80.80;;;;;;10904046;32;20030;-74
2022/01/22 07:32:35;;;;;;;50.53;37.03;;;2.50;81.00;;;;;;10890887;32;20356;-74
2022/01/22 07:39:11;;;;;;;45.30;27.62;;;2.70;81.30;;;;;;10903921;32;20070;-74
2022/01/22 07:45:14;;;;;;;45.95;31.67;;;2.70;81.00;;;;;;10886469;32;20188;-72
2022/01/22 07:51:17;;;;;;;58.80;41.95;;;2.50;81.20;;;;;;10903851;32;20047;-72
2022/01/22 07:57:37;;;;;;;53.53;34.72;;;2.40;81.50;;;;;;10903228;32;20070;-73
2022/01/22 08:03:42;;;;;;;48.25;31.00;;;2.50;82.00;;;;;;10902192;32;20027;-72
2022/01/22 08:10:00;;;;;;;39.20;25.20;;;2.60;81.70;;;;;;10891473;32;20045;-72
2022/01/22 08:16:02;;;;;;;38.33;25.45;;;2.60;81.40;;;;;;10902922;32;20362;-73
2022/01/22 08:22:05;;;;;;;46.58;26.85;;;2.30;81.50;;;;;;10902869;32;20028;-73
2022/01/22 08:41:27;;;;;;;50.35;30.83;;;2.10;81.80;;;;;;10904803;32;20336;-72
2022/01/22 08:47:29;;;;;;;80.90;42.65;;;2.30;81.90;;;;;;10906932;32;20028;-72
2022/01/22 08:53:32;;;;;;;66.00;41.88;;;2.20;81.60;;;;;;10907494;32;20040;-73
2022/01/22 08:59:34;;;;;;;58.35;30.52;;;2.20;81.70;;;;;;10907766;32;20101;-72
2022/01/22 09:05:38;;;;;;;78.22;47.03;;;2.20;81.70;;;;;;10908371;32;20022;-72
2022/01/22 09:11:44;;;;;;;57.42;33.80;;;2.20;81.70;;;;;;10905692;32;20427;-72
2022/01/22 09:17:48;;;;;;;93.78;55.58;;;2.30;81.80;;;;;;10908002;32;20036;-72
2022/01/22 09:23:51;;;;;;;82.72;45.15;;;2.40;82.10;;;;;;10894574;32;20053;-73
2022/01/22 09:29:54;;;;;;;50.10;29.85;;;2.50;82.50;;;;;;10907679;32;20023;-72
2022/01/22 09:36:42;;;;;;;69.30;41.80;;;2.60;82.20;;;;;;10907552;32;20055;-73
2022/01/22 09:42:45;;;;;;;70.32;42.10;;;2.60;82.60;;;;;;10358863;28;12149656;-72
2022/01/22 09:48:49;;;;;;;88.80;53.63;;;2.80;83.40;;;;;;10719651;33;20471;-73
2022/01/22 09:54:52;;;;;;;73.93;41.92;;;2.90;83.50;;;;;;10718765;33;20036;-73
2022/01/22 10:01:14;;;;;;;70.70;44.05;;;2.90;84.00;;;;;;10716509;33;20025;-73
2022/01/22 10:07:21;;;;;;;52.03;31.67;;;3.00;83.70;;;;;;10723811;33;20020;-73
2022/01/22 10:13:50;;;;;;;60.83;32.10;;;2.90;83.20;;;;;;10789775;33;20028;-73
2022/01/22 10:19:53;;;;;;;87.00;48.35;;;2.90;83.40;;;;;;10749761;33;20028;-73
2022/01/22 10:26:02;;;;;;;100.57;53.65;;;3.00;83.30;;;;;;10749109;33;20101;-73
2022/01/22 10:32:07;;;;;;;103.38;49.92;;;3.10;83.00;;;;;;10800815;32;20055;-73
2022/01/22 10:38:15;;;;;;;94.22;50.92;;;3.00;83.10;;;;;;10748084;33;20047;-73
2022/01/22 10:44:49;;;;;;;102.75;48.25;;;3.10;83.40;;;;;;10751917;33;20036;-73
2022/01/22 10:51:18;;;;;;;98.80;53.85;;;3.20;83.20;;;;;;10790000;33;20447;-74
2022/01/22 10:57:24;;;;;;;85.72;51.15;;;3.40;83.50;;;;;;10758434;33;20063;-73
2022/01/22 11:03:28;;;;;;;77.75;42.40;;;3.50;83.60;;;;;;10752717;33;20036;-73
2022/01/22 11:09:31;;;;;;;66.00;37.88;;;3.70;83.10;;;;;;10752350;33;20152;-73
2022/01/22 11:15:35;;;;;;;67.68;40.60;;;3.80;83.10;;;;;;10752565;33;20024;-73
2022/01/22 11:21:41;;;;;;;63.55;36.55;;;3.90;83.00;;;;;;10753102;33;20059;-74
2022/01/22 11:27:46;;;;;;;64.37;35.00;;;4.10;82.90;;;;;;10752172;33;20029;-73
2022/01/22 11:33:49;;;;;;;72.57;39.20;;;4.30;83.00;;;;;;10751119;33;20060;-73
2022/01/22 11:40:11;;;;;;;70.22;42.95;;;4.70;83.10;;;;;;10747680;33;20043;-73
2022/01/22 11:46:32;;;;;;;70.90;43.42;;;5.00;83.20;;;;;;10750538;33;20029;-72
2022/01/22 11:52:40;;;;;;;57.75;36.47;;;5.20;83.40;;;;;;10734153;33;20021;-72
2022/01/22 11:59:01;;;;;;;55.42;35.17;;;5.20;83.40;;;;;;10750432;33;20059;-72
2022/01/22 12:05:04;;;;;;;58.75;38.20;;;5.40;83.40;;;;;;10752578;33;20344;-72
2022/01/22 12:18:15;;;;;;;51.92;37.65;;;5.60;82.90;;;;;;10756455;33;20021;-73
2022/01/22 12:24:31;;;;;;;62.72;34.88;;;5.70;82.20;;;;;;10743005;33;20064;-73
2022/01/22 12:30:36;;;;;;;82.97;48.35;;;5.60;81.80;;;;;;10749972;33;20047;-72
2022/01/22 12:36:41;;;;;;;61.35;42.55;;;5.60;82.30;;;;;;10750098;33;20068;-73
2022/01/22 12:42:53;;;;;;;53.80;32.40;;;5.60;82.40;;;;;;10745137;32;20036;-73
2022/01/22 12:48:57;;;;;;;46.10;29.95;;;5.60;82.50;;;;;;10750318;33;20051;-73
2022/01/22 12:55:00;;;;;;;50.40;32.88;;;5.80;81.80;;;;;;10751194;33;20029;-73
2022/01/22 13:01:11;;;;;;;46.03;28.38;;;5.90;81.70;;;;;;10752242;33;20021;-73
2022/01/22 13:07:13;;;;;;;37.80;23.55;;;6.10;81.10;;;;;;10754467;33;20398;-73
2022/01/22 13:13:20;;;;;;;35.10;21.55;;;6.10;81.10;;;;;;10748287;32;20055;-73
2022/01/22 13:19:24;;;;;;;42.28;25.50;;;6.20;80.80;;;;;;10751397;33;20400;-73
2022/01/22 13:25:27;;;;;;;44.97;31.02;;;6.40;80.70;;;;;;10753488;33;20369;-73
2022/01/22 13:31:29;;;;;;;40.95;27.65;;;6.60;80.20;;;;;;10753716;33;20040;-73
2022/01/22 13:50:21;;;;;;;44.65;25.00;;;7.00;78.40;;;;;;10753750;33;20036;-73
2022/01/22 13:56:45;;;;;;;36.53;23.95;;;7.00;77.90;;;;;;10753433;33;20017;-73
2022/01/22 14:09:19;;;;;;;37.50;24.12;;;6.80;77.30;;;;;;10750064;33;20032;-73
2022/01/22 14:15:29;;;;;;;37.05;22.02;;;6.80;77.10;;;;;;10738688;33;20187;-71
2022/01/22 14:21:31;;;;;;;27.13;17.87;;;6.90;77.30;;;;;;10752727;33;20329;-71
2022/01/22 14:27:34;;;;;;;27.60;19.87;;;7.00;76.70;;;;;;10750849;33;20438;-71
2022/01/22 14:33:41;;;;;;;22.25;16.20;;;7.20;76.40;;;;;;10752298;33;20051;-72
2022/01/22 14:46:02;;;;;;;28.42;19.40;;;7.40;76.70;;;;;;10751800;32;20329;-71
2022/01/22 14:52:05;;;;;;;33.42;21.90;;;7.40;76.60;;;;;;10751606;33;20036;-71
2022/01/22 14:58:07;;;;;;;24.70;17.50;;;7.40;76.90;;;;;;10750698;32;20020;-72
2022/01/22 15:04:09;;;;;;;20.83;15.00;;;7.90;76.80;;;;;;10751770;33;20047;-72
2022/01/22 15:10:26;;;;;;;28.52;18.02;;;8.10;76.30;;;;;;10751434;33;20055;-72
2022/01/22 15:16:35;;;;;;;26.55;18.00;;;7.80;76.30;;;;;;10751229;33;20063;-71
2022/01/22 15:22:37;;;;;;;26.10;17.33;;;7.70;76.60;;;;;;10738380;33;20222;-72
2022/01/22 15:28:46;;;;;;;25.15;16.20;;;7.70;76.60;;;;;;10751126;33;20029;-72
2022/01/22 15:35:00;;;;;;;19.23;12.57;;;7.50;77.10;;;;;;10738353;33;20106;-73
2022/01/22 15:41:02;;;;;;;21.67;15.25;;;7.20;77.60;;;;;;10756774;33;20427;-72
2022/01/22 15:47:04;;;;;;;18.60;13.73;;;6.90;78.30;;;;;;10756330;33;20047;-71
2022/01/22 15:53:08;;;;;;;20.98;13.35;;;6.70;78.70;;;;;;10755976;33;20047;-72
2022/01/22 15:59:12;;;;;;;32.22;19.62;;;6.40;79.10;;;;;;10755434;33;20420;-71
2022/01/22 16:05:23;;;;;;;18.23;13.45;;;6.20;79.30;;;;;;10756150;33;20035;-72
2022/01/22 16:11:33;;;;;;;15.27;11.18;;;6.00;79.50;;;;;;10755761;33;20021;-73
2022/01/22 16:17:36;;;;;;;19.95;13.82;;;5.70;79.70;;;;;;10755674;33;20021;-71
2022/01/22 16:23:38;;;;;;;108.25;71.28;;;5.60;80.00;;;;;;10755115;33;20048;-73
2022/01/22 16:29:41;;;;;;;53.13;37.30;;;5.50;80.10;;;;;;10754026;33;20051;-73
2022/01/22 16:35:43;;;;;;;41.03;32.42;;;5.40;80.20;;;;;;10754234;33;20051;-73
2022/01/22 16:41:47;;;;;;;32.78;26.48;;;5.20;80.40;;;;;;10750532;33;20047;-73
2022/01/22 17:00:38;;;;;;;21.05;17.45;;;5.10;80.70;;;;;;10748947;33;20055;-73
2022/01/22 17:06:41;;;;;;;22.35;16.40;;;4.90;80.80;;;;;;10753938;33;20041;-73
2022/01/22 17:19:05;;;;;;;22.75;17.58;;;4.80;80.90;;;;;;10754426;33;20063;-73
2022/01/22 17:25:08;;;;;;;27.85;21.27;;;4.80;81.00;;;;;;10754476;33;20020;-73
2022/01/22 17:31:10;;;;;;;33.97;25.48;;;4.70;81.10;;;;;;10751233;33;20352;-73
2022/01/22 17:37:12;;;;;;;28.90;21.02;;;4.60;81.30;;;;;;10754093;33;20021;-72
2022/01/22 17:43:15;;;;;;;31.70;20.52;;;4.60;81.40;;;;;;10757698;27;20385;-72
2022/01/22 17:49:17;;;;;;;32.83;23.83;;;4.50;81.40;;;;;;10753739;33;20091;-72
2022/01/22 17:55:19;;;;;;;33.97;23.35;;;4.50;81.40;;;;;;10753132;33;20017;-72
2022/01/22 18:01:22;;;;;;;32.22;20.05;;;4.40;81.60;;;;;;10752699;33;20043;-73
2022/01/22 18:07:33;;;;;;;25.65;17.83;;;4.40;81.60;;;;;;10749327;33;20047;-73
2022/01/22 18:13:37;;;;;;;30.55;22.05;;;4.20;81.70;;;;;;10802241;32;20020;-73
2022/01/22 18:20:08;;;;;;;21.37;16.37;;;4.20;81.80;;;;;;10752780;33;20052;-73
2022/01/22 18:26:11;;;;;;;22.98;17.42;;;4.20;81.80;;;;;;10752209;33;20055;-73
2022/01/22 18:32:13;;;;;;;23.92;17.20;;;4.20;81.90;;;;;;10752689;33;20017;-73
2022/01/22 18:38:16;;;;;;;25.65;18.55;;;4.20;81.90;;;;;;10752534;33;20401;-73
2022/01/22 18:44:31;;;;;;;25.15;16.83;;;4.10;81.90;;;;;;10752207;33;20060;-72
2022/01/22 18:50:41;;;;;;;26.00;20.67;;;4.10;82.00;;;;;;10749590;33;20025;-72
2022/01/22 18:56:44;;;;;;;37.13;24.58;;;4.10;82.00;;;;;;10751646;33;20017;-73
2022/01/22 19:02:46;;;;;;;40.95;30.37;;;4.10;81.90;;;;;;10747795;33;20437;-72
2022/01/22 19:08:48;;;;;;;35.83;27.98;;;3.90;81.70;;;;;;10751808;33;20013;-72
2022/01/22 19:14:51;;;;;;;32.08;24.50;;;3.80;82.10;;;;;;10750386;33;20114;-72
2022/01/22 19:20:56;;;;;;;32.58;22.08;;;3.90;82.00;;;;;;10749272;33;20028;-72
2022/01/22 19:34:32;;;;;;;51.63;36.42;;;3.70;82.10;;;;;;10747977;33;20071;-72
2022/01/22 19:40:35;;;;;;;53.30;42.97;;;3.70;82.20;;;;;;10751064;33;20021;-72
2022/01/22 19:46:42;;;;;;;49.63;36.03;;;3.60;82.40;;;;;;10750732;33;20032;-72
2022/01/22 19:52:45;;;;;;;45.70;33.30;;;3.40;82.30;;;;;;10750647;33;20075;-73
2022/01/22 19:59:11;;;;;;;60.25;43.10;;;3.40;82.30;;;;;;10750469;33;20008;-73
2022/01/22 20:05:14;;;;;;;47.90;33.47;;;3.30;82.50;;;;;;10797907;32;20033;-73
2022/01/22 20:11:17;;;;;;;41.47;30.48;;;3.30;82.60;;;;;;10750203;33;20024;-73
2022/01/22 20:17:19;;;;;;;37.47;28.12;;;3.30;82.40;;;;;;10750083;33;20346;-72
2022/01/22 20:23:21;;;;;;;41.75;30.83;;;3.20;82.40;;;;;;10752346;33;20029;-72
2022/01/22 20:29:23;;;;;;;46.55;31.83;;;3.30;82.30;;;;;;10756007;33;20052;-72
2022/01/22 20:35:27;;;;;;;44.75;35.35;;;3.20;82.20;;;;;;10754897;33;20424;-72
2022/01/22 20:41:29;;;;;;;56.80;39.17;;;3.30;82.30;;;;;;10755714;33;20340;-72
2022/01/22 20:47:32;;;;;;;73.32;50.50;;;3.20;82.20;;;;;;10755702;33;20047;-72
2022/01/22 20:53:34;;;;;;;52.72;38.75;;;3.20;82.30;;;;;;10753744;33;20067;-72
2022/01/22 20:59:37;;;;;;;58.38;38.45;;;3.20;82.30;;;;;;10755238;33;20016;-72
2022/01/22 21:05:40;;;;;;;71.40;48.72;;;3.10;82.40;;;;;;10755174;33;20329;-72
2022/01/22 21:11:43;;;;;;;69.40;42.50;;;3.10;82.40;;;;;;10804948;32;20028;-72
2022/01/22 21:17:46;;;;;;;55.65;39.83;;;3.10;82.30;;;;;;10753816;33;20024;-72
2022/01/22 21:23:49;;;;;;;58.25;43.85;;;3.10;82.20;;;;;;10753932;33;20504;-72
2022/01/22 21:29:51;;;;;;;54.90;41.35;;;3.10;82.40;;;;;;10754514;33;20051;-72
2022/01/22 21:35:55;;;;;;;59.03;44.78;;;3.10;82.10;;;;;;10753649;33;20047;-72
2022/01/22 21:41:58;;;;;;;56.78;40.35;;;3.10;82.20;;;;;;10754033;33;20036;-73
2022/01/22 21:48:02;;;;;;;60.38;41.65;;;3.10;82.00;;;;;;10754072;33;20044;-73
2022/01/22 21:54:04;;;;;;;61.90;40.58;;;3.10;81.90;;;;;;10752533;33;20118;-73
2022/01/22 22:00:08;;;;;;;59.58;38.67;;;3.10;82.00;;;;;;10753789;33;20337;-73
2022/01/22 22:06:15;;;;;;;55.92;42.70;;;3.10;81.90;;;;;;10753303;33;20025;-73
2022/01/22 22:12:18;;;;;;;56.72;41.25;;;3.20;82.20;;;;;;10750310;33;20059;-73
2022/01/22 22:18:20;;;;;;;68.05;44.72;;;3.10;82.40;;;;;;10753128;33;20017;-73
2022/01/22 22:24:23;;;;;;;60.28;42.15;;;3.20;82.50;;;;;;10752664;33;20033;-73
2022/01/22 22:30:25;;;;;;;50.85;37.60;;;3.00;82.20;;;;;;10752758;33;20029;-73
2022/01/22 22:36:28;;;;;;;49.28;36.33;;;2.90;82.20;;;;;;10748523;33;20024;-73
2022/01/22 22:42:37;;;;;;;50.45;36.15;;;2.90;82.00;;;;;;10751866;33;20427;-74
2022/01/22 22:48:40;;;;;;;51.00;37.63;;;2.90;81.80;;;;;;10752270;33;20063;-73
2022/01/22 22:54:42;;;;;;;51.72;38.85;;;2.90;81.90;;;;;;10752013;33;20020;-73
2022/01/22 23:00:55;;;;;;;61.28;41.90;;;3.00;82.30;;;;;;10751910;33;20021;-74
2022/01/22 23:06:57;;;;;;;57.40;42.15;;;3.10;82.50;;;;;;10751600;33;20357;-74
2022/01/22 23:13:00;;;;;;;58.92;38.72;;;3.10;82.20;;;;;;10751753;32;20036;-74
2022/01/22 23:25:41;;;;;;;55.85;40.25;;;3.00;81.90;;;;;;10748006;33;20397;-74
2022/01/22 23:31:48;;;;;;;55.30;40.25;;;2.90;82.10;;;;;;10751241;33;20040;-74
